Time;durP1;ratioP1;P1;durP2;ratioP2;P2;SDS_P1;SDS_P2;PMS_P1;PMS_P2;Temp;Humidity;BMP_temperature;BMP_pressure;BME280_temperature;BME280_humidity;BME280_pressure;Samples;Min_cycle;Max_cycle;Signal;HPM_P1;HPM_P2
2023/02/14 00:00:18;;;;;;;24.52;13.57;;;;;;;4.01;78.58;100314.50;4970814;28;20102;-74
2023/02/14 00:02:43;;;;;;;25.02;12.85;;;;;;;4.03;78.57;100311.56;4970762;28;20026;-74
2023/02/14 00:05:09;;;;;;;24.27;12.82;;;;;;;4.02;78.77;100315.34;4969892;28;20011;-75
2023/02/14 00:07:34;;;;;;;21.45;12.02;;;;;;;4.02;78.92;100309.91;4970385;28;20071;-74
2023/02/14 00:10:00;;;;;;;24.67;12.45;;;;;;;4.01;79.07;100308.22;4970062;28;20399;-75
2023/02/14 00:12:25;;;;;;;24.42;12.77;;;;;;;4.01;78.72;100314.50;4970567;28;20039;-74
2023/02/14 00:17:35;;;;;;;25.17;13.40;;;;;;;4.02;79.18;100316.19;4968503;28;20050;-75
2023/02/14 00:20:00;;;;;;;23.30;12.35;;;;;;;4.05;79.28;100314.91;4970045;28;20031;-75
2023/02/14 00:22:25;;;;;;;28.05;14.00;;;;;;;4.09;79.47;100310.75;4968941;28;20042;-75
2023/02/14 00:24:51;;;;;;;25.23;13.45;;;;;;;4.12;79.39;100318.47;4970340;28;20627;-74
2023/02/14 00:27:16;;;;;;;27.40;14.68;;;;;;;4.15;78.95;100318.06;4972671;28;20030;-74
2023/02/14 00:29:41;;;;;;;30.98;15.70;;;;;;;4.15;78.67;100323.50;4972330;28;20030;-74
2023/02/14 00:32:07;;;;;;;35.05;16.67;;;;;;;4.15;79.21;100325.38;4972674;28;20027;-75
2023/02/14 00:34:35;;;;;;;31.23;15.32;;;;;;;4.16;79.02;100329.75;4971893;28;20035;-75
2023/02/14 00:37:01;;;;;;;28.35;14.68;;;;;;;4.15;78.44;100319.94;4970407;28;20045;-74
2023/02/14 00:39:26;;;;;;;30.30;15.05;;;;;;;4.10;79.13;100331.44;4972041;28;20113;-75
2023/02/14 00:41:52;;;;;;;24.55;12.60;;;;;;;4.08;78.34;100324.50;4972266;28;20070;-74
2023/02/14 00:44:17;;;;;;;37.53;15.80;;;;;;;4.07;79.06;100325.59;4971789;28;20027;-75
2023/02/14 00:46:43;;;;;;;92.13;32.33;;;;;;;4.06;78.52;100332.88;4972146;28;20038;-75
2023/02/14 00:49:08;;;;;;;77.15;26.00;;;;;;;4.07;78.74;100331.03;4970665;28;20039;-75
2023/02/14 00:51:34;;;;;;;56.78;18.65;;;;;;;4.08;78.50;100322.66;4971974;28;20605;-75
2023/02/14 00:54:00;;;;;;;33.67;13.90;;;;;;;4.10;78.71;100322.44;4972246;28;20122;-75
2023/02/14 00:56:26;;;;;;;35.03;14.23;;;;;;;4.12;78.53;100325.78;4972098;28;20038;-75
2023/02/14 00:58:51;;;;;;;43.83;17.65;;;;;;;4.12;78.71;100312.19;4971813;28;20109;-74
2023/02/14 01:01:17;;;;;;;45.85;17.00;;;;;;;4.15;79.47;100309.06;4971910;28;20037;-75
2023/02/14 01:03:42;;;;;;;41.30;16.48;;;;;;;4.16;78.69;100317.03;4970038;28;20030;-74
2023/02/14 01:06:08;;;;;;;39.90;16.33;;;;;;;4.16;78.59;100311.59;4971516;28;20023;-74
2023/02/14 01:08:34;;;;;;;33.55;15.23;;;;;;;4.19;79.26;100317.66;4971506;28;20471;-75
2023/02/14 01:11:14;;;;;;;37.22;15.45;;;;;;;4.16;78.48;100308.88;4971791;28;20586;-74
2023/02/14 01:13:40;;;;;;;33.03;14.75;;;;;;;4.17;78.77;100318.69;4971556;28;20125;-74
2023/02/14 01:16:08;;;;;;;30.42;14.20;;;;;;;4.18;78.49;100319.53;4969013;28;20070;-74
2023/02/14 01:18:34;;;;;;;33.42;15.98;;;;;;;4.14;78.53;100321.81;4970679;28;20082;-75
2023/02/14 01:21:28;;;;;;;31.88;15.00;;;;;;;4.13;78.80;100325.59;4970497;28;20031;-75
2023/02/14 01:23:56;;;;;;;26.42;13.15;;;;;;;4.12;79.14;100321.19;4971653;28;20039;-75
2023/02/14 01:26:23;;;;;;;25.48;12.43;;;;;;;4.13;78.52;100316.59;4970857;28;20096;-74
2023/02/14 01:28:50;;;;;;;27.73;14.32;;;;;;;4.10;78.93;100312.41;4970900;28;20031;-75
2023/02/14 01:31:19;;;;;;;28.50;14.20;;;;;;;4.09;78.36;100305.31;4970999;28;20039;-75
2023/02/14 01:33:46;;;;;;;23.55;12.30;;;;;;;4.07;78.79;100312.84;4975550;28;20121;-74
2023/02/14 01:36:17;;;;;;;22.23;12.05;;;;;;;4.05;78.81;100306.78;4970388;28;20046;-75
2023/02/14 01:38:42;;;;;;;23.40;11.77;;;;;;;4.03;78.51;100303.44;4970466;28;20023;-74
2023/02/14 01:41:08;;;;;;;26.23;13.05;;;;;;;4.01;78.54;100306.38;4971542;28;20030;-74
2023/02/14 01:43:51;;;;;;;24.85;12.75;;;;;;;3.98;78.14;100303.22;4970963;28;20031;-74
2023/02/14 01:46:18;;;;;;;22.60;12.55;;;;;;;3.98;78.81;100298.63;4969470;28;20053;-75
2023/02/14 01:48:45;;;;;;;24.33;12.70;;;;;;;3.96;78.48;100294.44;4972319;28;20121;-74
2023/02/14 01:51:12;;;;;;;23.42;12.82;;;;;;;3.95;78.88;100304.47;4974799;28;20575;-74
2023/02/14 01:53:38;;;;;;;24.85;13.43;;;;;;;3.98;78.96;100311.34;4975106;28;20030;-75
2023/02/14 01:56:11;;;;;;;24.08;13.55;;;;;;;3.98;78.82;100301.34;4974603;28;20023;-75
2023/02/14 01:58:43;;;;;;;24.23;13.27;;;;;;;4.00;78.59;100293.84;4974914;28;20122;-74
2023/02/14 02:01:12;;;;;;;21.70;11.60;;;;;;;3.98;78.45;100293.19;4973144;28;20026;-75
2023/02/14 02:03:54;;;;;;;23.25;12.55;;;;;;;3.96;78.84;100291.72;4975039;28;20029;-74
2023/02/14 02:06:44;;;;;;;21.92;12.70;;;;;;;3.95;78.93;100284.63;4974065;28;20054;-75
2023/02/14 02:09:51;;;;;;;22.95;12.80;;;;;;;3.94;78.10;100274.81;4974084;28;20034;-74
2023/02/14 02:12:17;;;;;;;23.38;13.32;;;;;;;3.92;78.21;100274.16;4973446;28;20050;-75
2023/02/14 02:14:44;;;;;;;25.08;14.82;;;;;;;3.89;78.00;100280.88;4974206;28;20082;-75
2023/02/14 02:17:28;;;;;;;32.28;16.23;;;;;;;3.86;78.13;100287.56;4974784;28;20027;-75
2023/02/14 02:20:41;;;;;;;37.88;16.65;;;;;;;3.82;78.17;100280.00;4973920;28;20049;-75
2023/02/14 02:23:35;;;;;;;33.28;14.55;;;;;;;3.78;78.68;100284.19;4970131;28;20125;-74
2023/02/14 02:26:15;;;;;;;26.08;12.70;;;;;;;3.78;78.73;100276.88;4974119;28;20026;-74
2023/02/14 02:29:04;;;;;;;25.30;12.65;;;;;;;3.76;78.18;100283.56;4970850;28;20118;-76
2023/02/14 02:32:02;;;;;;;34.10;16.00;;;;;;;3.79;78.24;100284.00;4973340;28;20559;-76
2023/02/14 02:34:30;;;;;;;36.90;15.95;;;;;;;3.80;78.85;100279.38;4964172;28;20393;-76
2023/02/14 02:37:51;;;;;;;30.55;16.05;;;;;;;3.82;78.73;100280.00;4973744;28;20101;-76
2023/02/14 02:40:51;;;;;;;27.15;15.20;;;;;;;3.86;78.04;100286.72;4955245;28;20045;-76
2023/02/14 02:43:34;;;;;;;26.80;14.77;;;;;;;3.85;78.13;100291.31;4967961;28;20054;-76
2023/02/14 02:49:12;;;;;;;25.70;14.40;;;;;;;3.85;78.22;100285.03;4972947;28;20042;-76
2023/02/14 02:54:45;;;;;;;24.30;13.00;;;;;;;3.82;78.54;100289.00;4973811;28;20050;-76
2023/02/14 02:57:21;;;;;;;24.33;13.30;;;;;;;3.81;78.22;100286.47;4973932;28;20053;-76
2023/02/14 02:59:50;;;;;;;25.55;13.20;;;;;;;3.74;78.40;100289.19;4972391;28;20537;-76
2023/02/14 03:02:23;;;;;;;25.88;13.48;;;;;;;3.75;78.68;100290.03;4973634;28;20479;-77
2023/02/14 03:05:01;;;;;;;23.58;12.90;;;;;;;3.76;78.22;100289.84;4973248;28;20046;-76
2023/02/14 03:07:38;;;;;;;24.30;13.68;;;;;;;3.75;78.83;100290.88;4973900;28;20428;-76
2023/02/14 03:10:19;;;;;;;21.52;12.75;;;;;;;3.76;78.74;100292.53;4972773;28;20031;-76
2023/02/14 03:13:08;;;;;;;21.33;12.07;;;;;;;3.75;78.51;100290.88;4973230;28;20045;-75
2023/02/14 03:15:57;;;;;;;19.92;11.43;;;;;;;3.73;78.13;100287.53;4976537;28;20031;-77
2023/02/14 03:22:00;;;;;;;23.13;12.65;;;;;;;3.74;78.25;100291.91;4972655;28;20574;-76
2023/02/14 03:24:29;;;;;;;20.90;11.90;;;;;;;3.77;78.06;100287.94;4972332;28;20046;-77
2023/02/14 03:27:06;;;;;;;23.23;12.30;;;;;;;3.78;78.08;100284.19;4973617;28;20034;-76
2023/02/14 03:29:58;;;;;;;19.02;10.43;;;;;;;3.75;78.39;100284.59;4973493;28;20031;-77
2023/02/14 03:32:43;;;;;;;22.17;11.38;;;;;;;3.71;77.92;100276.88;4972834;28;20042;-77
2023/02/14 03:35:21;;;;;;;21.02;11.40;;;;;;;3.67;77.90;100291.06;4971953;28;20026;-77
2023/02/14 03:38:11;;;;;;;21.42;12.05;;;;;;;3.67;78.64;100291.88;4973204;28;20035;-77
2023/02/14 03:41:08;;;;;;;20.83;11.90;;;;;;;3.72;78.50;100294.00;4971763;28;20035;-77
2023/02/14 03:43:38;;;;;;;29.95;14.57;;;;;;;3.72;78.58;100285.84;4967694;28;20043;-77
2023/02/14 03:46:06;;;;;;;25.30;13.45;;;;;;;3.71;77.83;100284.19;4972342;28;20133;-76
2023/02/14 03:48:33;;;;;;;23.58;12.60;;;;;;;3.68;78.62;100290.00;4972494;28;20023;-77
2023/02/14 03:51:01;;;;;;;22.83;12.93;;;;;;;3.67;78.64;100291.88;4971425;28;20055;-77
2023/02/14 03:53:30;;;;;;;20.85;11.18;;;;;;;3.68;78.53;100287.31;4972766;28;20045;-76
2023/02/14 03:56:14;;;;;;;20.90;11.63;;;;;;;3.67;77.94;100291.88;4972094;28;20026;-77
2023/02/14 03:58:45;;;;;;;21.33;11.68;;;;;;;3.67;78.50;100299.19;4972408;28;20039;-78
2023/02/14 04:01:22;;;;;;;22.45;12.32;;;;;;;3.65;78.35;100293.13;4972162;28;20034;-76
2023/02/14 04:03:48;;;;;;;23.33;11.88;;;;;;;3.64;77.70;100297.75;4971913;28;20043;-76
2023/02/14 04:06:17;;;;;;;19.52;12.02;;;;;;;3.64;77.96;100296.91;4972043;28;20043;-76
2023/02/14 04:08:42;;;;;;;22.38;12.38;;;;;;;3.64;77.86;100300.47;4971478;28;20038;-77
2023/02/14 04:11:08;;;;;;;23.58;13.23;;;;;;;3.65;78.06;100304.84;4972073;28;20485;-77
2023/02/14 04:13:35;;;;;;;24.98;13.40;;;;;;;3.68;77.86;100298.97;4972075;28;20038;-77
2023/02/14 04:16:01;;;;;;;25.67;14.93;;;;;;;3.69;78.43;100295.22;4972213;28;20031;-77
2023/02/14 04:21:11;;;;;;;27.23;14.10;;;;;;;3.69;78.42;100292.50;4972242;28;20046;-76
2023/02/14 04:23:36;;;;;;;48.60;21.20;;;;;;;3.68;78.01;100282.69;4971961;28;20482;-76
2023/02/14 04:26:02;;;;;;;36.83;17.20;;;;;;;3.71;77.75;100286.91;4972042;28;20435;-76
2023/02/14 04:28:30;;;;;;;52.58;24.10;;;;;;;3.71;77.90;100290.44;4972020;28;20035;-77
2023/02/14 04:30:55;;;;;;;56.35;22.90;;;;;;;3.70;77.88;100298.78;4972148;28;20037;-77
2023/02/14 04:33:21;;;;;;;44.65;20.02;;;;;;;3.69;77.70;100280.84;4971452;28;20030;-77
2023/02/14 04:35:49;;;;;;;44.20;19.00;;;;;;;3.67;77.79;100285.63;4971607;28;20054;-77
2023/02/14 04:38:14;;;;;;;57.00;22.73;;;;;;;3.67;77.39;100291.88;4970451;28;20027;-77
2023/02/14 04:40:40;;;;;;;88.22;30.25;;;;;;;3.67;78.16;100291.06;4972076;28;20031;-77
2023/02/14 04:43:07;;;;;;;46.30;19.17;;;;;;;3.64;77.32;100291.47;4971710;28;20068;-77
2023/02/14 04:45:32;;;;;;;43.70;19.83;;;;;;;3.61;77.84;100290.00;4971719;28;20499;-77
2023/02/14 04:47:57;;;;;;;69.13;24.45;;;;;;;3.62;78.09;100286.25;4968507;28;20039;-77
2023/02/14 04:50:24;;;;;;;86.05;27.30;;;;;;;3.61;77.59;100292.72;4970453;28;20042;-77
2023/02/14 04:52:50;;;;;;;72.40;23.70;;;;;;;3.60;77.27;100295.63;4971363;28;20037;-77
2023/02/14 04:55:15;;;;;;;65.28;23.13;;;;;;;3.56;77.68;100297.94;4971319;28;20018;-78
2023/02/14 04:57:41;;;;;;;71.88;25.10;;;;;;;3.54;77.40;100294.59;4971580;28;20406;-77
2023/02/14 05:00:07;;;;;;;78.03;26.10;;;;;;;3.49;77.64;100295.16;4971792;28;20042;-77
2023/02/14 05:02:32;;;;;;;80.88;30.48;;;;;;;3.48;77.45;100301.63;4971836;28;20093;-77
2023/02/14 05:04:58;;;;;;;92.68;32.88;;;;;;;3.48;77.73;100304.34;4971320;28;20468;-77
2023/02/14 05:07:23;;;;;;;70.93;29.63;;;;;;;3.51;77.46;100308.56;4971752;28;20167;-77
2023/02/14 05:09:49;;;;;;;72.40;29.67;;;;;;;3.52;78.03;100311.03;4971937;28;20023;-77
2023/02/14 05:12:15;;;;;;;45.50;21.92;;;;;;;3.53;78.21;100310.00;4971736;28;20023;-77
2023/02/14 05:14:40;;;;;;;37.58;16.10;;;;;;;3.51;77.20;100309.38;4971857;28;20101;-77
2023/02/14 05:17:05;;;;;;;35.03;15.43;;;;;;;3.51;77.80;100309.38;4972143;28;20527;-77
2023/02/14 05:19:31;;;;;;;25.08;12.52;;;;;;;3.53;77.03;100318.16;4971845;28;20018;-77
2023/02/14 05:21:56;;;;;;;28.50;12.88;;;;;;;3.55;77.96;100313.34;4971829;28;20042;-77
2023/02/14 05:24:22;;;;;;;26.05;12.32;;;;;;;3.58;77.44;100320.25;4973773;28;20027;-77
2023/02/14 05:26:47;;;;;;;23.15;12.52;;;;;;;3.60;77.98;100325.47;4974546;28;20031;-77
2023/02/14 05:29:12;;;;;;;23.55;13.45;;;;;;;3.56;77.37;100323.16;4975518;28;20122;-77
2023/02/14 05:31:38;;;;;;;23.27;13.77;;;;;;;3.55;77.77;100326.91;4975827;28;20117;-78
2023/02/14 05:34:03;;;;;;;22.58;12.95;;;;;;;3.58;77.37;100328.41;4975335;28;20035;-77
2023/02/14 05:36:28;;;;;;;19.85;11.88;;;;;;;3.60;77.82;100334.47;4975137;28;20085;-77
2023/02/14 05:38:54;;;;;;;23.17;12.98;;;;;;;3.62;77.43;100326.09;4975077;28;20502;-76
2023/02/14 05:41:20;;;;;;;24.35;13.52;;;;;;;3.60;77.04;100329.03;4972742;28;20470;-76
2023/02/14 05:43:45;;;;;;;25.27;13.95;;;;;;;3.56;77.17;100327.78;4974616;28;20038;-77
2023/02/14 05:46:10;;;;;;;24.30;12.95;;;;;;;3.55;77.83;100323.38;4974418;28;20030;-77
2023/02/14 05:48:36;;;;;;;22.88;13.65;;;;;;;3.54;77.14;100327.97;4974721;28;20068;-77
2023/02/14 05:51:06;;;;;;;22.02;12.57;;;;;;;3.55;77.70;100324.22;4974681;28;20126;-77
2023/02/14 05:53:32;;;;;;;20.98;12.18;;;;;;;3.58;77.27;100336.53;4975064;28;20446;-78
2023/02/14 05:55:59;;;;;;;25.98;14.73;;;;;;;3.58;77.48;100333.84;4974953;28;20101;-77
2023/02/14 05:58:25;;;;;;;28.00;14.52;;;;;;;3.60;77.45;100333.63;4975984;28;20027;-77
2023/02/14 06:00:50;;;;;;;29.27;14.70;;;;;;;3.61;76.92;100338.00;4974833;28;20035;-77
2023/02/14 06:03:15;;;;;;;26.70;14.88;;;;;;;3.62;77.27;100340.53;4975205;28;20026;-77
2023/02/14 06:05:41;;;;;;;25.20;13.25;;;;;;;3.62;77.78;100339.66;4974632;28;20035;-76
2023/02/14 06:08:06;;;;;;;22.85;12.65;;;;;;;3.64;76.93;100332.16;4975153;28;20368;-77
2023/02/14 06:10:31;;;;;;;24.25;13.05;;;;;;;3.61;76.89;100336.13;4974429;28;20055;-76
2023/02/14 06:12:57;;;;;;;22.67;13.20;;;;;;;3.62;77.29;100342.38;4974675;28;20035;-77
2023/02/14 06:15:22;;;;;;;24.10;13.65;;;;;;;3.60;77.62;100342.59;4973923;28;20039;-77
2023/02/14 06:17:53;;;;;;;24.50;13.13;;;;;;;3.60;77.22;100344.47;4974745;28;20019;-77
2023/02/14 06:20:19;;;;;;;24.05;14.00;;;;;;;3.62;76.78;100345.09;4974672;28;20018;-76
2023/02/14 06:22:45;;;;;;;23.55;14.43;;;;;;;3.65;77.11;100352.84;4975026;28;20538;-77
2023/02/14 06:25:10;;;;;;;22.98;14.70;;;;;;;3.65;77.35;100352.84;4973515;28;20031;-77
2023/02/14 06:27:35;;;;;;;22.02;12.52;;;;;;;3.63;77.15;100344.91;4972974;28;20548;-77
2023/02/14 06:30:01;;;;;;;39.50;23.33;;;;;;;3.64;76.64;100352.00;4976382;28;20085;-77
2023/02/14 06:32:26;;;;;;;51.72;26.95;;;;;;;3.65;77.43;100352.84;4974634;28;20069;-77
2023/02/14 06:34:51;;;;;;;34.10;18.85;;;;;;;3.66;77.29;100354.50;4973483;28;20121;-78
2023/02/14 06:37:17;;;;;;;26.52;15.23;;;;;;;3.67;76.79;100354.28;4970385;28;20035;-80
2023/02/14 06:39:42;;;;;;;26.60;14.48;;;;;;;3.68;76.59;100352.44;4972499;28;20403;-75
2023/02/14 06:42:08;;;;;;;25.45;13.65;;;;;;;3.67;76.80;100345.31;4973629;28;20261;-77
2023/02/14 06:44:33;;;;;;;26.42;13.07;;;;;;;3.65;76.48;100345.53;4972761;28;20023;-77
2023/02/14 06:46:58;;;;;;;22.85;12.75;;;;;;;3.65;76.60;100345.53;4973710;28;20031;-77
2023/02/14 06:49:24;;;;;;;21.90;12.68;;;;;;;3.67;76.93;100345.31;4972263;28;20037;-77
2023/02/14 06:51:49;;;;;;;22.20;12.55;;;;;;;3.65;76.60;100342.84;4972884;28;20408;-78
2023/02/14 06:54:15;;;;;;;21.38;12.07;;;;;;;3.65;76.72;100348.25;4977837;28;20027;-78
2023/02/14 06:56:40;;;;;;;22.88;12.70;;;;;;;3.65;76.99;100344.69;4972758;28;20034;-78
2023/02/14 06:59:06;;;;;;;23.55;12.05;;;;;;;3.67;76.67;100345.31;4972536;28;20037;-77
2023/02/14 07:01:31;;;;;;;20.45;11.98;;;;;;;3.68;76.40;100347.81;4972408;28;20490;-82
2023/02/14 07:03:57;;;;;;;19.58;11.45;;;;;;;3.68;76.66;100357.84;4966907;28;20074;-81
2023/02/14 07:06:22;;;;;;;20.17;11.27;;;;;;;3.69;76.64;100356.81;4971568;28;20073;-84
2023/02/14 07:08:48;;;;;;;22.60;13.20;;;;;;;3.69;76.40;100354.09;4972805;28;20031;-82
2023/02/14 07:11:13;;;;;;;22.02;12.05;;;;;;;3.69;76.76;100357.63;4970388;28;20095;-81
2023/02/14 07:13:38;;;;;;;20.15;11.38;;;;;;;3.70;76.39;100369.34;4971066;28;20539;-82
2023/02/14 07:16:04;;;;;;;37.78;15.25;;;;;;;3.70;76.55;100366.63;4971236;28;20050;-82
2023/02/14 07:18:29;;;;;;;71.88;23.10;;;;;;;3.71;76.39;100363.69;4969394;28;20081;-78
2023/02/14 07:20:55;;;;;;;74.35;24.33;;;;;;;3.73;76.30;100360.81;4971391;28;20025;-83
2023/02/14 07:23:21;;;;;;;76.22;24.85;;;;;;;3.75;76.61;100366.88;4971743;28;20510;-81
2023/02/14 07:25:46;;;;;;;93.20;29.00;;;;;;;3.78;76.51;100363.75;4969898;28;20027;-78
2023/02/14 07:28:12;;;;;;;71.65;24.20;;;;;;;3.80;76.42;100356.22;4971578;28;20034;-79
2023/02/14 07:30:37;;;;;;;65.25;20.52;;;;;;;3.79;76.25;100359.13;4970648;28;20033;-80
2023/02/14 07:33:03;;;;;;;52.03;18.00;;;;;;;3.81;76.19;100362.47;4971944;28;20109;-82
2023/02/14 07:35:28;;;;;;;30.63;14.45;;;;;;;3.81;76.58;100357.91;4971137;28;20046;-80
2023/02/14 07:37:53;;;;;;;28.55;13.80;;;;;;;3.81;76.27;100359.78;4971530;28;20109;-78
2023/02/14 07:40:19;;;;;;;26.70;13.25;;;;;;;3.79;76.33;100361.84;4971991;28;20054;-77
2023/02/14 07:42:52;;;;;;;23.90;13.30;;;;;;;3.77;75.84;100369.34;4971564;28;20408;-75
2023/02/14 07:45:18;;;;;;;23.80;13.48;;;;;;;3.76;76.13;100365.81;4969014;28;20054;-78
2023/02/14 07:47:43;;;;;;;22.92;13.88;;;;;;;3.73;76.28;100355.38;4969533;28;20043;-80
2023/02/14 07:50:09;;;;;;;20.92;12.48;;;;;;;3.70;76.25;100364.75;4969724;28;20124;-80
2023/02/14 07:52:34;;;;;;;19.35;12.02;;;;;;;3.73;76.46;100374.38;4969701;28;20042;-79
2023/02/14 07:54:59;;;;;;;21.30;12.90;;;;;;;3.71;75.72;100365.59;4968707;28;20551;-77
2023/02/14 07:57:25;;;;;;;20.58;12.13;;;;;;;3.72;75.61;100364.56;4969840;28;20117;-78
2023/02/14 07:59:50;;;;;;;22.25;13.32;;;;;;;3.70;75.60;100362.03;4969700;28;20030;-83
2023/02/14 08:02:16;;;;;;;26.20;12.63;;;;;;;3.70;75.72;100364.75;4969933;28;20027;-80
2023/02/14 08:04:41;;;;;;;22.67;12.45;;;;;;;3.71;76.33;100363.69;4970048;28;20026;-82
2023/02/14 08:07:06;;;;;;;20.88;12.65;;;;;;;3.75;75.64;100363.28;4969563;28;20057;-81
2023/02/14 08:09:32;;;;;;;20.35;11.90;;;;;;;3.78;75.51;100363.75;4970269;28;20035;-81
2023/02/14 08:14:43;;;;;;;20.50;11.70;;;;;;;3.78;75.21;100366.47;4967482;28;20042;-86
2023/02/14 08:17:09;;;;;;;21.88;12.07;;;;;;;3.79;75.62;100372.72;4969871;28;20041;-82
2023/02/14 08:19:36;;;;;;;22.30;11.88;;;;;;;3.81;75.21;100371.47;4970458;28;20066;-79
2023/02/14 08:22:02;;;;;;;25.95;13.63;;;;;;;3.81;75.62;100366.06;4969140;28;20037;-80
2023/02/14 08:24:28;;;;;;;20.52;12.07;;;;;;;3.82;75.98;100366.88;4970173;28;20065;-84
2023/02/14 08:26:54;;;;;;;24.95;13.30;;;;;;;3.83;75.66;100368.53;4968619;28;20046;-83
2023/02/14 08:29:19;;;;;;;22.55;12.80;;;;;;;3.86;75.67;100373.56;4970541;28;20539;-84
2023/02/14 08:31:46;;;;;;;21.83;12.63;;;;;;;3.88;75.67;100372.31;4968889;28;20031;-82
2023/02/14 08:34:12;;;;;;;23.90;13.45;;;;;;;3.92;75.99;100371.91;4967766;28;20029;-81
2023/02/14 08:36:37;;;;;;;23.45;12.23;;;;;;;3.98;75.46;100381.94;4969229;28;20400;-81
2023/02/14 08:39:04;;;;;;;22.88;12.85;;;;;;;4.00;75.07;100371.72;4971007;28;20410;-78
2023/02/14 08:41:30;;;;;;;22.00;12.18;;;;;;;3.98;74.80;100377.38;4970242;28;20031;-81
2023/02/14 08:43:55;;;;;;;21.60;12.60;;;;;;;3.98;75.67;100373.81;4971084;28;20042;-82
2023/02/14 08:46:21;;;;;;;20.92;11.68;;;;;;;4.01;75.36;100381.53;4969819;28;20034;-81
2023/02/14 08:48:46;;;;;;;22.42;12.52;;;;;;;4.04;75.52;100378.41;4967919;28;20073;-80
2023/02/14 08:51:13;;;;;;;23.55;14.45;;;;;;;4.05;74.91;100385.50;4968309;28;20074;-80
2023/02/14 08:53:39;;;;;;;25.52;16.15;;;;;;;4.06;75.71;100387.19;4969330;28;20023;-78
2023/02/14 08:56:07;;;;;;;27.02;14.88;;;;;;;4.05;74.94;100382.81;4969296;28;20019;-80
2023/02/14 08:58:34;;;;;;;32.88;16.27;;;;;;;4.12;75.31;100401.81;4968688;28;20023;-81
2023/02/14 09:01:01;;;;;;;30.98;16.92;;;;;;;4.10;74.98;100393.03;4970495;28;20023;-78
2023/02/14 09:03:26;;;;;;;25.90;13.88;;;;;;;4.07;74.77;100394.28;4968853;28;20087;-78
2023/02/14 09:05:52;;;;;;;36.00;16.60;;;;;;;4.08;75.04;100395.13;4968937;28;20789;-79
2023/02/14 09:08:17;;;;;;;29.75;14.23;;;;;;;4.06;74.64;100394.50;4969505;28;20081;-81
2023/02/14 09:10:42;;;;;;;29.45;14.85;;;;;;;4.06;74.27;100394.50;4970043;28;20034;-83
2023/02/14 09:13:08;;;;;;;27.30;13.40;;;;;;;4.06;74.59;100392.63;4969349;28;20061;-87
2023/02/14 09:15:33;;;;;;;23.10;11.98;;;;;;;4.08;75.03;100393.25;4968173;28;20034;-80
2023/02/14 09:17:59;;;;;;;23.38;12.60;;;;;;;4.12;74.84;100390.94;4969764;28;20027;-79
2023/02/14 09:20:24;;;;;;;25.58;11.43;;;;;;;4.19;74.56;100389.09;4970580;28;20041;-79
2023/02/14 09:22:50;;;;;;;25.83;12.85;;;;;;;4.26;75.20;100383.69;4969039;28;20484;-77
2023/02/14 09:25:16;;;;;;;20.60;11.68;;;;;;;4.30;74.72;100390.34;4969512;28;20019;-81
2023/02/14 09:27:42;;;;;;;21.45;11.07;;;;;;;4.39;74.98;100378.25;4967463;28;20472;-78
2023/02/14 09:30:08;;;;;;;19.65;11.07;;;;;;;4.45;74.87;100388.28;4967934;28;20026;-79
2023/02/14 09:32:33;;;;;;;24.55;12.55;;;;;;;4.54;75.39;100386.19;4969305;28;20030;-77
2023/02/14 09:34:59;;;;;;;22.40;11.15;;;;;;;4.61;74.71;100387.03;4970325;28;20027;-80
2023/02/14 09:40:15;;;;;;;22.02;11.68;;;;;;;4.69;74.34;100390.59;4970110;28;20038;-78
2023/02/14 09:43:03;;;;;;;20.08;11.10;;;;;;;4.73;74.26;100389.94;4970084;28;20133;-80
2023/02/14 09:45:32;;;;;;;17.55;11.02;;;;;;;4.77;74.67;100395.81;4971363;28;20038;-78
2023/02/14 09:48:24;;;;;;;19.40;11.50;;;;;;;4.83;74.87;100396.84;4970804;28;20066;-78
2023/02/14 09:50:59;;;;;;;23.10;13.02;;;;;;;4.95;74.77;100394.31;4970572;28;20082;-78
2023/02/14 09:53:31;;;;;;;20.35;10.60;;;;;;;5.02;74.32;100393.28;4970709;28;20035;-79
2023/02/14 09:56:40;;;;;;;19.80;10.40;;;;;;;5.05;74.23;100400.16;4969467;28;20436;-79
2023/02/14 09:59:18;;;;;;;18.60;9.95;;;;;;;5.09;73.79;100400.59;4974750;28;20038;-79
2023/02/14 10:02:14;;;;;;;19.70;11.27;;;;;;;5.10;73.83;100400.38;4970477;28;20031;-78
2023/02/14 10:05:05;;;;;;;18.08;10.98;;;;;;;5.15;73.69;100397.84;4969684;28;20039;-78
2023/02/14 10:07:55;;;;;;;15.27;9.60;;;;;;;5.19;73.51;100396.38;4972825;28;20045;-79
2023/02/14 10:10:29;;;;;;;18.98;9.70;;;;;;;5.20;73.65;100398.06;4973651;28;20105;-78
2023/02/14 10:13:18;;;;;;;18.85;10.73;;;;;;;5.20;73.23;100406.22;4971697;28;20039;-78
2023/02/14 10:16:09;;;;;;;19.00;9.85;;;;;;;5.19;73.51;100406.41;4969077;28;20034;-78
2023/02/14 10:18:44;;;;;;;17.70;10.30;;;;;;;5.24;73.85;100392.19;4972401;28;20097;-77
2023/02/14 10:21:19;;;;;;;16.08;9.68;;;;;;;5.28;73.71;100394.25;4974272;28;20035;-78
2023/02/14 10:23:52;;;;;;;17.20;10.05;;;;;;;5.30;73.11;100392.16;4971161;28;20030;-77
2023/02/14 10:26:33;;;;;;;17.85;10.52;;;;;;;5.33;73.03;100396.34;4972375;28;20446;-78
2023/02/14 10:28:59;;;;;;;18.00;10.23;;;;;;;5.39;72.90;100394.66;4974017;28;20126;-77
2023/02/14 10:31:38;;;;;;;18.60;10.48;;;;;;;5.44;73.29;100398.41;4974679;28;20129;-76
2023/02/14 10:34:55;;;;;;;20.25;11.32;;;;;;;5.51;73.40;100398.38;4977764;28;20078;-77
2023/02/14 10:37:26;;;;;;;20.30;10.55;;;;;;;5.65;73.42;100400.00;4972972;28;20542;-77
2023/02/14 10:40:04;;;;;;;17.80;9.85;;;;;;;5.70;72.96;100385.75;4974084;28;20031;-77
2023/02/14 10:42:48;;;;;;;17.20;10.40;;;;;;;5.71;72.52;100392.84;4989263;28;20026;-77
2023/02/14 10:45:22;;;;;;;18.75;10.75;;;;;;;5.72;72.64;100389.06;4974873;28;20027;-77
2023/02/14 10:47:53;;;;;;;29.63;13.45;;;;;;;5.76;72.65;100389.50;4972814;28;20496;-77
2023/02/14 10:50:42;;;;;;;25.73;12.93;;;;;;;5.82;72.42;100386.72;4971244;28;20047;-76
2023/02/14 10:53:31;;;;;;;23.63;12.65;;;;;;;5.87;72.64;100380.63;4973731;28;20027;-78
2023/02/14 10:55:59;;;;;;;22.02;10.50;;;;;;;5.93;72.62;100384.38;4973306;28;20180;-77
2023/02/14 10:58:29;;;;;;;17.88;9.32;;;;;;;6.00;72.53;100381.59;4973349;28;20081;-79
2023/02/14 11:01:03;;;;;;;18.42;10.05;;;;;;;6.02;72.44;100372.19;4974011;28;20031;-77
2023/02/14 11:03:29;;;;;;;23.85;13.80;;;;;;;6.04;71.88;100375.53;4973272;28;20037;-77
2023/02/14 11:05:54;;;;;;;44.97;19.88;;;;;;;6.08;71.79;100374.06;4973299;28;20031;-78
2023/02/14 11:08:40;;;;;;;34.47;16.73;;;;;;;6.11;72.01;100359.16;4973202;28;20027;-77
2023/02/14 11:11:27;;;;;;;41.42;15.85;;;;;;;6.15;71.79;100370.44;4973561;28;20117;-77
2023/02/14 11:13:52;;;;;;;21.85;10.88;;;;;;;6.21;72.00;100364.94;4973789;28;20047;-78
2023/02/14 11:16:38;;;;;;;37.22;15.20;;;;;;;6.22;71.75;100363.91;4973194;28;20114;-77
2023/02/14 11:19:18;;;;;;;22.10;10.70;;;;;;;6.30;71.53;100360.06;4973340;28;20051;-78
2023/02/14 11:21:45;;;;;;;12.98;7.43;;;;;;;6.34;71.77;100358.56;4972311;28;20146;-78
2023/02/14 11:24:29;;;;;;;15.32;7.47;;;;;;;6.37;71.58;100349.94;4973214;28;20058;-78
2023/02/14 11:27:14;;;;;;;17.48;8.95;;;;;;;6.42;71.22;100349.28;4972701;28;20058;-75
2023/02/14 11:29:39;;;;;;;14.23;8.15;;;;;;;6.40;70.51;100345.94;4972704;28;20105;-75
2023/02/14 11:32:13;;;;;;;14.13;7.60;;;;;;;6.42;70.96;100353.91;4987444;28;20475;-75
2023/02/14 11:34:53;;;;;;;17.13;8.93;;;;;;;6.38;70.80;100342.59;4972283;28;20031;-76
2023/02/14 11:37:21;;;;;;;15.38;8.90;;;;;;;6.37;70.18;100351.81;4972715;28;20019;-77
2023/02/14 11:39:48;;;;;;;15.68;7.70;;;;;;;6.36;70.08;100355.59;4972465;28;20050;-77
2023/02/14 11:42:32;;;;;;;21.02;10.10;;;;;;;6.37;69.90;100346.38;4972567;28;20090;-77
2023/02/14 11:44:58;;;;;;;18.80;9.13;;;;;;;6.42;70.33;100338.38;4972342;28;20093;-74
2023/02/14 11:47:29;;;;;;;16.35;7.55;;;;;;;6.46;70.13;100334.16;4972889;28;20031;-76
2023/02/14 11:50:19;;;;;;;19.40;10.38;;;;;;;6.48;70.33;100334.75;4972647;28;20046;-78
2023/02/14 11:52:50;;;;;;;20.50;10.00;;;;;;;6.51;69.97;100317.97;4972155;28;20031;-83